Meadows Field

Airport
ICAO code: 
KBFL
Summary
ICAO Region: 
NAM
Territory: 
Location: 
Bakersfield, California
Serving: 
Bakersfield
Coordinates: 
Aerial View: 
35° 26' 16.012" N, 119° 3' 8.86" W
Airport LOS: 
Parallel Runway Operation
Metar
Observation
KBFL 040654Z 04004KT 4SM HZ CLR 11/03 A3010 RMK AO2 SLP190 T01060033
Station
Bakersfield, Meadows Field Airport
Date/Time
2021-12-04 06:54:00
Wind direction
40°
Wind speed
04 kts
Lowest cloud amount
n/a
Temperature
10.6°C
Dew point
3.3°C
Humidity
60%
Weather condition
haze

International airport located 6 km northwest of the central business district of Bakersfield, California. It is the primary airport serving the Greater Bakersfield metropolitan area and one of two international airports in the San Joaquin Valley.

Climatology

Hot Desert Climate (Köppen climate classification BWh)

Runways

Designator Length Width Surface Rops
12R/30L 1128 23 ASP Yes/Yes
12L/30R 3309 46 ASP Yes/Yes
Airport map: 
Aerial View: 

SKYbrary Partners:

Safety knowledge contributed by: